createdAt,value
2022-09-09T00:02:12.782Z,16.96
2022-09-09T00:04:43.663Z,16.95
2022-09-09T00:07:22.116Z,16.95
2022-09-09T00:09:59.939Z,16.91
2022-09-09T00:12:37.097Z,16.91
2022-09-09T00:15:13.849Z,16.90
2022-09-09T00:17:49.872Z,16.88
2022-09-09T00:20:27.582Z,16.86
2022-09-09T00:23:02.567Z,16.82
2022-09-09T00:25:37.902Z,16.85
2022-09-09T00:28:18.293Z,16.85
2022-09-09T00:30:49.794Z,16.80
2022-09-09T00:33:23.263Z,16.76
2022-09-09T00:35:55.350Z,16.81
2022-09-09T00:38:29.035Z,16.72
2022-09-09T00:41:05.731Z,16.69
2022-09-09T00:43:37.287Z,16.64
2022-09-09T00:46:48.008Z,16.64
2022-09-09T00:49:27.136Z,16.63
2022-09-09T00:52:10.399Z,16.61
2022-09-09T00:54:47.754Z,16.60
2022-09-09T00:57:25.667Z,16.59
2022-09-09T00:59:59.992Z,16.59
2022-09-09T01:02:33.528Z,16.42
2022-09-09T01:05:09.422Z,16.49
2022-09-09T01:07:39.306Z,16.51
2022-09-09T01:10:18.582Z,16.47
2022-09-09T01:12:49.475Z,16.43
2022-09-09T01:15:27.090Z,16.32
2022-09-09T01:18:02.733Z,16.18
2022-09-09T01:20:42.828Z,16.05
2022-09-09T01:23:28.044Z,15.93
2022-09-09T01:26:29.168Z,15.88
2022-09-09T01:29:00.599Z,15.90
2022-09-09T01:31:42.152Z,15.87
2022-09-09T01:34:14.161Z,15.85
2022-09-09T01:36:46.319Z,15.91
2022-09-09T01:39:15.743Z,15.92
2022-09-09T01:41:46.951Z,15.95
2022-09-09T01:44:19.823Z,15.97
2022-09-09T01:46:48.352Z,16.01
2022-09-09T01:49:21.219Z,16.09
2022-09-09T01:51:53.137Z,16.13
2022-09-09T01:54:30.246Z,16.10
2022-09-09T01:57:11.688Z,16.11
2022-09-09T01:59:54.431Z,16.16
2022-09-09T02:02:28.990Z,16.14
2022-09-09T02:05:19.646Z,16.12
2022-09-09T02:07:50.470Z,16.06
2022-09-09T02:10:35.518Z,16.08
2022-09-09T02:13:21.804Z,16.02
2022-09-09T02:15:56.294Z,15.95
2022-09-09T02:18:29.420Z,15.99
2022-09-09T02:21:01.084Z,15.97
2022-09-09T02:23:31.419Z,15.93
2022-09-09T02:26:02.286Z,15.89
2022-09-09T02:28:36.452Z,15.96
2022-09-09T02:31:05.068Z,16.06
2022-09-09T02:33:45.288Z,16.12
2022-09-09T02:36:17.624Z,16.12
2022-09-09T02:38:51.638Z,16.08
2022-09-09T02:41:28.457Z,16.01
2022-09-09T02:43:59.964Z,16.00
2022-09-09T02:46:44.729Z,15.99
2022-09-09T02:49:20.626Z,16.00
2022-09-09T02:51:59.305Z,15.86
2022-09-09T02:54:32.128Z,15.78
2022-09-09T02:57:10.788Z,15.87
2022-09-09T02:59:42.753Z,15.95
2022-09-09T03:02:12.667Z,15.93
2022-09-09T03:04:45.310Z,15.83
2022-09-09T03:07:17.352Z,15.72
2022-09-09T03:09:47.058Z,15.78
2022-09-09T03:12:16.343Z,15.85
2022-09-09T03:14:46.934Z,15.87
2022-09-09T03:17:16.608Z,15.84
2022-09-09T03:19:55.783Z,15.78
2022-09-09T03:22:24.642Z,15.64
2022-09-09T03:24:53.798Z,15.68
2022-09-09T03:27:22.764Z,15.67
2022-09-09T03:29:53.075Z,15.67
2022-09-09T03:32:27.425Z,15.69
2022-09-09T03:34:58.535Z,15.68
2022-09-09T03:37:28.291Z,15.63
2022-09-09T03:39:57.134Z,15.63
2022-09-09T03:42:26.039Z,15.60
2022-09-09T03:44:59.282Z,15.57
2022-09-09T03:47:28.484Z,15.60
2022-09-09T03:50:07.417Z,15.62
2022-09-09T03:52:36.797Z,15.61
2022-09-09T03:55:07.611Z,15.57
2022-09-09T03:57:37.552Z,15.52
2022-09-09T04:00:13.068Z,15.55
2022-09-09T04:02:55.543Z,15.59
2022-09-09T04:05:24.811Z,15.61
2022-09-09T04:07:53.376Z,15.59
2022-09-09T04:10:23.431Z,15.62
2022-09-09T04:12:52.272Z,15.63
2022-09-09T04:15:22.211Z,15.62
2022-09-09T04:17:50.838Z,15.54
2022-09-09T04:20:20.820Z,15.47
2022-09-09T04:22:49.208Z,15.37
2022-09-09T04:25:17.907Z,15.37
2022-09-09T04:27:46.808Z,15.39
2022-09-09T04:30:15.173Z,15.42
2022-09-09T04:32:46.050Z,15.41
2022-09-09T04:35:14.635Z,15.42
2022-09-09T04:37:43.304Z,15.42
2022-09-09T04:40:12.274Z,15.34
2022-09-09T04:42:44.958Z,15.26
2022-09-09T04:45:16.299Z,15.26
2022-09-09T04:47:46.403Z,15.30
2022-09-09T04:50:16.104Z,15.29
2022-09-09T04:52:48.501Z,15.10
2022-09-09T04:55:17.413Z,15.01
2022-09-09T04:57:46.840Z,14.96
2022-09-09T05:00:18.480Z,14.89
2022-09-09T05:02:48.960Z,14.89
2022-09-09T05:05:17.865Z,14.91
2022-09-09T05:07:47.262Z,14.98
2022-09-09T05:10:17.494Z,15.03
2022-09-09T05:12:54.968Z,15.08
2022-09-09T05:15:26.071Z,15.15
2022-09-09T05:18:00.416Z,15.18
2022-09-09T05:20:30.142Z,15.21
2022-09-09T05:22:59.249Z,15.23
2022-09-09T05:25:30.660Z,15.23
2022-09-09T05:28:00.968Z,15.25
2022-09-09T05:30:29.745Z,15.24
2022-09-09T05:33:00.346Z,15.14
2022-09-09T05:35:31.426Z,15.15
2022-09-09T05:38:01.679Z,15.14
2022-09-09T05:40:31.770Z,15.10
2022-09-09T05:43:02.900Z,15.05
2022-09-09T05:45:32.099Z,14.87
2022-09-09T05:48:02.885Z,15.07
2022-09-09T05:50:32.986Z,15.09
2022-09-09T05:53:01.294Z,15.13
2022-09-09T05:55:31.906Z,15.17
2022-09-09T05:58:00.883Z,15.19
2022-09-09T06:00:30.609Z,15.22
2022-09-09T06:03:00.309Z,15.25
2022-09-09T06:05:31.604Z,15.26
2022-09-09T06:08:01.455Z,15.23
2022-09-09T06:10:29.787Z,15.18
2022-09-09T06:12:58.350Z,15.23
2022-09-09T06:15:28.051Z,15.37
2022-09-09T06:17:57.404Z,15.34
2022-09-09T06:20:25.780Z,15.27
2022-09-09T06:22:55.379Z,15.25
2022-09-09T06:25:25.528Z,15.28
2022-09-09T06:27:53.836Z,15.32
2022-09-09T06:30:22.403Z,15.40
2022-09-09T06:32:50.958Z,15.50
2022-09-09T06:35:19.714Z,15.53
2022-09-09T06:37:50.180Z,15.64
2022-09-09T06:40:21.871Z,15.73
2022-09-09T06:42:51.261Z,15.75
2022-09-09T06:45:37.575Z,15.78
2022-09-09T06:48:06.373Z,15.78
2022-09-09T06:50:34.761Z,15.78
2022-09-09T06:53:03.982Z,15.83
2022-09-09T06:55:35.084Z,15.90
2022-09-09T06:58:03.692Z,15.95
2022-09-09T07:00:32.528Z,16.06
2022-09-09T07:03:01.451Z,16.14
2022-09-09T07:05:30.566Z,16.22
2022-09-09T07:07:59.312Z,16.26
2022-09-09T07:10:28.874Z,16.34
2022-09-09T07:12:59.272Z,16.39
2022-09-09T07:15:28.088Z,16.43
2022-09-09T07:17:57.443Z,16.38
2022-09-09T07:20:27.482Z,16.37
2022-09-09T07:22:57.035Z,16.38
2022-09-09T07:25:26.071Z,16.43
2022-09-09T07:27:54.400Z,16.50
2022-09-09T07:30:27.717Z,16.57
2022-09-09T07:32:58.277Z,16.54
2022-09-09T07:35:28.003Z,16.43
2022-09-09T07:37:57.508Z,16.41
2022-09-09T07:40:26.121Z,16.47
2022-09-09T07:42:55.690Z,16.53
2022-09-09T07:45:25.803Z,16.60
2022-09-09T07:47:55.049Z,16.63
2022-09-09T07:50:24.554Z,16.63
2022-09-09T07:52:54.612Z,16.72
2022-09-09T07:55:27.099Z,16.78
2022-09-09T07:57:57.586Z,16.84
2022-09-09T08:00:29.206Z,16.89
2022-09-09T08:03:03.105Z,16.94
2022-09-09T08:05:31.957Z,16.93
2022-09-09T08:08:01.826Z,16.91
2022-09-09T08:10:30.622Z,16.96
2022-09-09T08:13:17.304Z,16.94
2022-09-09T08:15:50.139Z,16.95
2022-09-09T08:18:19.756Z,16.98
2022-09-09T08:20:49.490Z,17.06
2022-09-09T08:23:18.088Z,17.11
2022-09-09T08:25:46.670Z,17.15
2022-09-09T08:28:16.593Z,17.17
2022-09-09T08:30:45.003Z,17.23
2022-09-09T08:33:15.054Z,17.26
2022-09-09T08:35:53.163Z,17.29
2022-09-09T08:38:22.595Z,17.34
2022-09-09T08:40:55.004Z,17.35
2022-09-09T08:43:25.920Z,17.37
2022-09-09T08:46:05.088Z,17.35
2022-09-09T08:48:50.070Z,17.31
2022-09-09T08:51:18.871Z,17.27
2022-09-09T08:53:51.430Z,17.29
2022-09-09T08:56:24.987Z,17.33
2022-09-09T08:58:58.887Z,17.37
2022-09-09T09:01:52.349Z,17.41
2022-09-09T09:04:44.936Z,17.47
2022-09-09T09:07:32.564Z,17.49
2022-09-09T09:10:24.266Z,17.51
2022-09-09T09:13:03.198Z,17.55
2022-09-09T09:15:38.308Z,17.56
2022-09-09T09:18:13.534Z,17.57
2022-09-09T09:20:53.180Z,17.58
2022-09-09T09:23:24.830Z,17.55
2022-09-09T09:26:01.752Z,17.56
2022-09-09T09:28:34.168Z,17.60
2022-09-09T09:31:15.224Z,17.62
2022-09-09T09:33:51.238Z,17.67
2022-09-09T09:36:27.707Z,17.61
2022-09-09T09:41:48.532Z,17.53
2022-09-09T09:44:27.184Z,17.47
2022-09-09T09:47:09.247Z,17.33
2022-09-09T09:49:38.497Z,17.29
2022-09-09T09:52:09.615Z,17.35
2022-09-09T09:54:41.472Z,17.46
2022-09-09T09:57:13.412Z,17.50
2022-09-09T09:59:44.718Z,17.56
2022-09-09T10:02:24.256Z,17.63
2022-09-09T10:05:06.719Z,17.74
2022-09-09T10:07:39.881Z,17.85
2022-09-09T10:10:16.482Z,17.96
2022-09-09T10:12:58.199Z,17.93
2022-09-09T10:15:42.507Z,17.74
2022-09-09T10:18:49.497Z,17.61
2022-09-09T10:21:33.087Z,17.51
2022-09-09T10:24:29.354Z,17.58
2022-09-09T10:27:04.526Z,17.53
2022-09-09T10:29:45.073Z,17.64
2022-09-09T10:32:38.491Z,17.64
2022-09-09T10:35:14.166Z,17.64
2022-09-09T10:38:07.404Z,17.64
2022-09-09T10:40:45.462Z,17.73
2022-09-09T10:43:31.500Z,17.87
2022-09-09T10:46:10.435Z,18.00
2022-09-09T10:48:56.176Z,18.08
2022-09-09T10:51:38.699Z,18.16
2022-09-09T10:54:30.153Z,18.28
2022-09-09T10:57:05.682Z,18.35
2022-09-09T10:59:39.369Z,18.58
2022-09-09T11:02:18.783Z,18.67
2022-09-09T11:04:53.619Z,18.72
2022-09-09T11:07:30.299Z,18.77
2022-09-09T11:10:07.373Z,18.98
2022-09-09T11:12:41.450Z,19.10
2022-09-09T11:15:19.122Z,19.27
2022-09-09T11:17:51.855Z,19.45
2022-09-09T11:20:20.242Z,19.65
2022-09-09T11:22:53.244Z,19.84
2022-09-09T11:25:27.855Z,19.82
2022-09-09T11:28:17.307Z,19.95
2022-09-09T11:31:00.523Z,20.08
2022-09-09T11:34:00.230Z,20.11
2022-09-09T11:36:49.308Z,20.18
2022-09-09T11:39:40.710Z,20.27
2022-09-09T11:42:10.880Z,20.30
2022-09-09T11:44:41.069Z,20.33
2022-09-09T11:47:23.080Z,20.42
2022-09-09T11:49:51.404Z,20.69
2022-09-09T11:52:26.687Z,20.79
2022-09-09T11:54:57.374Z,21.16
2022-09-09T11:57:33.063Z,21.83
2022-09-09T12:00:03.640Z,22.31
2022-09-09T12:02:52.163Z,22.28
2022-09-09T12:05:23.039Z,22.39
2022-09-09T12:07:56.892Z,22.24
2022-09-09T12:10:29.854Z,22.18
2022-09-09T12:13:10.222Z,21.85
2022-09-09T12:15:51.203Z,21.80
2022-09-09T12:18:26.362Z,21.91
2022-09-09T12:21:02.812Z,21.82
2022-09-09T12:23:43.831Z,21.81
2022-09-09T12:26:26.493Z,21.78
2022-09-09T12:29:04.343Z,21.72
2022-09-09T12:31:45.113Z,21.67
2022-09-09T12:34:19.390Z,21.82
2022-09-09T12:36:55.851Z,21.99
2022-09-09T12:39:32.495Z,22.29
2022-09-09T12:42:01.299Z,22.51
2022-09-09T12:44:30.111Z,23.05
2022-09-09T12:47:03.639Z,23.37
2022-09-09T12:49:35.845Z,23.87
2022-09-09T12:52:06.882Z,24.17
2022-09-09T12:54:38.039Z,24.09
2022-09-09T12:57:07.080Z,23.76
2022-09-09T12:59:41.327Z,23.29
2022-09-09T13:02:21.394Z,23.03
2022-09-09T13:04:51.571Z,23.33
2022-09-09T13:07:20.939Z,23.74
2022-09-09T13:09:51.266Z,23.97
2022-09-09T13:12:22.194Z,24.04
2022-09-09T13:14:52.998Z,24.17
2022-09-09T13:17:26.695Z,24.33
2022-09-09T13:19:56.996Z,24.69
2022-09-09T13:22:34.352Z,24.69
2022-09-09T13:25:19.595Z,25.02
2022-09-09T13:27:56.877Z,25.52
2022-09-09T13:30:27.858Z,25.44
2022-09-09T13:33:24.474Z,24.57
2022-09-09T13:35:56.764Z,24.00
2022-09-09T13:38:27.742Z,23.65
2022-09-09T13:40:58.988Z,23.46
2022-09-09T13:43:28.782Z,23.16
2022-09-09T13:46:00.289Z,22.97
2022-09-09T13:48:31.000Z,22.86
2022-09-09T13:51:02.905Z,22.76
2022-09-09T13:53:31.889Z,22.74
2022-09-09T13:56:02.754Z,22.67
2022-09-09T13:58:31.031Z,22.60
2022-09-09T14:00:59.774Z,22.54
2022-09-09T14:03:28.214Z,22.41
2022-09-09T14:05:58.858Z,22.31
2022-09-09T14:08:38.531Z,22.37
2022-09-09T14:11:07.040Z,22.71
2022-09-09T14:13:36.130Z,23.35
2022-09-09T14:16:04.457Z,23.90
2022-09-09T14:18:33.556Z,24.23
2022-09-09T14:21:04.096Z,24.42
2022-09-09T14:23:33.756Z,24.16
2022-09-09T14:26:02.519Z,23.61
2022-09-09T14:31:20.392Z,23.96
2022-09-09T14:33:48.818Z,24.27
2022-09-09T14:36:19.031Z,24.43
2022-09-09T14:38:47.544Z,24.35
2022-09-09T14:41:19.301Z,24.13
2022-09-09T14:43:48.578Z,23.87
2022-09-09T14:46:19.033Z,23.53
2022-09-09T14:48:49.777Z,23.09
2022-09-09T14:51:23.624Z,22.65
2022-09-09T14:53:54.915Z,22.40
2022-09-09T14:56:26.443Z,22.33
2022-09-09T14:58:56.801Z,22.39
2022-09-09T15:01:28.259Z,22.28
2022-09-09T15:03:59.451Z,22.06
2022-09-09T15:06:31.068Z,21.98
2022-09-09T15:09:00.318Z,21.93
2022-09-09T15:11:31.756Z,21.87
2022-09-09T15:14:00.290Z,21.78
2022-09-09T15:16:30.239Z,21.75
2022-09-09T15:19:01.307Z,21.61
2022-09-09T15:21:33.807Z,21.41
2022-09-09T15:24:02.390Z,21.37
2022-09-09T15:26:31.239Z,21.26
2022-09-09T15:29:01.036Z,21.18
2022-09-09T15:31:32.819Z,21.03
2022-09-09T15:34:04.105Z,20.87
2022-09-09T15:36:35.933Z,20.85
2022-09-09T15:39:06.167Z,20.68
2022-09-09T15:41:36.026Z,20.64
2022-09-09T15:44:04.635Z,20.63
2022-09-09T15:46:37.485Z,20.60
2022-09-09T15:49:07.698Z,20.49
2022-09-09T15:51:44.255Z,20.36
2022-09-09T15:54:15.065Z,20.25
2022-09-09T15:56:44.427Z,20.05
2022-09-09T15:59:13.108Z,20.02
2022-09-09T16:01:43.533Z,19.94
2022-09-09T16:04:12.617Z,19.87
2022-09-09T16:06:43.028Z,19.80
2022-09-09T16:09:12.032Z,19.71
2022-09-09T16:11:41.436Z,19.87
2022-09-09T16:14:10.027Z,19.81
2022-09-09T16:16:39.353Z,19.83
2022-09-09T16:19:10.731Z,19.78
2022-09-09T16:21:43.019Z,19.70
2022-09-09T16:24:13.768Z,19.69
2022-09-09T16:26:46.112Z,19.79
2022-09-09T16:29:15.546Z,19.77
2022-09-09T16:31:44.295Z,19.72
2022-09-09T16:34:13.040Z,19.83
2022-09-09T16:36:44.174Z,20.30
2022-09-09T16:39:14.249Z,20.49
2022-09-09T16:41:45.175Z,20.56
2022-09-09T16:44:16.149Z,20.38
2022-09-09T16:46:45.396Z,20.22
2022-09-09T16:49:16.275Z,20.08
2022-09-09T16:51:48.426Z,19.90
2022-09-09T16:54:18.194Z,19.78
2022-09-09T16:56:48.672Z,19.77
2022-09-09T16:59:19.037Z,19.71
2022-09-09T17:01:49.509Z,19.66
2022-09-09T17:04:22.005Z,19.68
2022-09-09T17:06:54.449Z,19.60
2022-09-09T17:09:24.519Z,19.51
2022-09-09T17:11:54.534Z,19.41
2022-09-09T17:14:24.797Z,19.45
2022-09-09T17:16:53.791Z,19.36
2022-09-09T17:19:22.130Z,19.39
2022-09-09T17:24:41.484Z,19.20
2022-09-09T17:27:10.057Z,19.12
2022-09-09T17:29:38.865Z,19.11
2022-09-09T17:32:08.729Z,19.11
2022-09-09T17:34:37.519Z,19.04
2022-09-09T17:37:08.406Z,18.95
2022-09-09T17:39:37.035Z,18.94
2022-09-09T17:42:05.511Z,18.92
2022-09-09T17:44:34.254Z,18.86
2022-09-09T17:47:05.302Z,18.83
2022-09-09T17:49:33.628Z,18.84
2022-09-09T17:52:02.774Z,18.85
2022-09-09T17:54:34.320Z,18.82
2022-09-09T17:57:02.718Z,18.78
2022-09-09T17:59:32.063Z,18.74
2022-09-09T18:02:00.602Z,18.79
2022-09-09T18:04:29.036Z,18.79
2022-09-09T18:06:57.655Z,18.74
2022-09-09T18:09:28.224Z,18.62
2022-09-09T18:12:00.121Z,18.57
2022-09-09T18:14:31.553Z,18.62
2022-09-09T18:17:00.835Z,18.57
2022-09-09T18:19:32.277Z,18.49
2022-09-09T18:22:02.815Z,18.48
2022-09-09T18:24:32.001Z,18.50
2022-09-09T18:27:02.292Z,18.54
2022-09-09T18:29:31.166Z,18.55
2022-09-09T18:32:00.424Z,18.55
2022-09-09T18:34:30.473Z,18.53
2022-09-09T18:36:58.820Z,18.55
2022-09-09T18:39:30.156Z,18.60
2022-09-09T18:42:01.079Z,18.59
2022-09-09T18:44:33.077Z,18.59
2022-09-09T18:47:02.855Z,18.58
2022-09-09T18:49:31.383Z,18.54
2022-09-09T18:52:00.409Z,18.61
2022-09-09T18:54:31.374Z,18.63
2022-09-09T18:57:01.283Z,18.69
2022-09-09T18:59:32.078Z,18.70
2022-09-09T19:02:00.614Z,18.67
2022-09-09T19:04:29.802Z,18.59
2022-09-09T19:06:58.772Z,18.63
2022-09-09T19:09:31.079Z,18.63
2022-09-09T19:12:00.767Z,18.62
2022-09-09T19:14:31.140Z,18.63
2022-09-09T19:17:00.442Z,18.67
2022-09-09T19:19:32.555Z,18.64
2022-09-09T19:22:02.169Z,18.62
2022-09-09T19:24:32.839Z,18.58
2022-09-09T19:27:03.207Z,18.55
2022-09-09T19:29:34.717Z,18.52
2022-09-09T19:34:53.030Z,18.47
2022-09-09T19:37:22.803Z,18.44
2022-09-09T19:39:51.783Z,18.44
2022-09-09T19:42:20.574Z,18.42
2022-09-09T19:44:50.851Z,18.40
2022-09-09T19:47:19.787Z,18.39
2022-09-09T19:49:48.193Z,18.38
2022-09-09T19:52:17.817Z,18.40
2022-09-09T19:54:46.731Z,18.37
2022-09-09T19:57:15.671Z,18.36
2022-09-09T19:59:44.795Z,18.25
2022-09-09T20:02:16.635Z,18.12
2022-09-09T20:04:45.101Z,18.15
2022-09-09T20:07:13.527Z,18.21
2022-09-09T20:09:42.194Z,18.17
2022-09-09T20:12:10.944Z,18.11
2022-09-09T20:14:40.259Z,18.06
2022-09-09T20:17:10.072Z,17.90
2022-09-09T20:19:40.511Z,17.86
2022-09-09T20:22:08.914Z,17.86
2022-09-09T20:24:38.007Z,17.81
2022-09-09T20:27:08.008Z,17.72
2022-09-09T20:29:37.483Z,17.80
2022-09-09T20:32:06.856Z,17.69
2022-09-09T20:34:35.395Z,17.51
2022-09-09T20:37:05.879Z,17.44
2022-09-09T20:39:36.412Z,17.36
2022-09-09T20:42:05.270Z,17.36
2022-09-09T20:44:33.625Z,17.38
2022-09-09T20:47:06.969Z,17.42
2022-09-09T20:49:36.189Z,17.38
2022-09-09T20:52:07.216Z,17.31
2022-09-09T20:54:37.922Z,17.28
2022-09-09T20:57:07.133Z,17.28
2022-09-09T20:59:36.128Z,17.28
2022-09-09T21:02:04.974Z,17.21
2022-09-09T21:04:33.754Z,17.18
2022-09-09T21:07:02.569Z,17.15
2022-09-09T21:09:32.563Z,17.12
2022-09-09T21:12:01.555Z,17.12
2022-09-09T21:14:29.841Z,17.13
2022-09-09T21:16:58.542Z,17.14
2022-09-09T21:19:26.858Z,17.15
2022-09-09T21:21:56.143Z,17.14
2022-09-09T21:24:24.423Z,17.13
2022-09-09T21:26:56.455Z,17.14
2022-09-09T21:29:25.064Z,17.13
2022-09-09T21:31:56.226Z,17.15
2022-09-09T21:34:24.709Z,17.14
2022-09-09T21:36:53.623Z,17.12
2022-09-09T21:39:22.660Z,17.05
2022-09-09T21:41:51.510Z,17.03
2022-09-09T21:44:21.366Z,17.02
2022-09-09T21:46:49.698Z,16.88
2022-09-09T21:49:17.976Z,16.69
2022-09-09T21:51:47.408Z,16.65
2022-09-09T21:54:15.739Z,16.60
2022-09-09T21:56:44.576Z,16.58
2022-09-09T21:59:12.912Z,16.55
2022-09-09T22:01:43.534Z,16.55
2022-09-09T22:04:12.175Z,16.52
2022-09-09T22:06:40.566Z,16.53
2022-09-09T22:09:09.943Z,16.45
2022-09-09T22:11:38.249Z,16.39
2022-09-09T22:14:07.458Z,16.41
2022-09-09T22:16:36.024Z,16.36
2022-09-09T22:19:07.681Z,16.42
2022-09-09T22:21:36.117Z,16.40
2022-09-09T22:24:06.905Z,16.42
2022-09-09T22:26:37.732Z,16.42
2022-09-09T22:29:07.620Z,16.38
2022-09-09T22:31:37.252Z,16.39
2022-09-09T22:34:08.401Z,16.28
2022-09-09T22:36:36.746Z,16.31
2022-09-09T22:39:05.971Z,16.27
2022-09-09T22:41:35.139Z,16.24
2022-09-09T22:44:04.094Z,16.24
2022-09-09T22:46:32.801Z,16.18
2022-09-09T22:49:03.887Z,16.08
2022-09-09T22:51:35.125Z,16.01
2022-09-09T22:54:03.808Z,16.06
2022-09-09T22:56:32.223Z,16.01
2022-09-09T22:59:01.583Z,16.05
2022-09-09T23:01:30.887Z,16.05
2022-09-09T23:04:03.015Z,16.08
2022-09-09T23:06:33.279Z,16.08
2022-09-09T23:09:03.978Z,16.10
2022-09-09T23:11:34.680Z,16.12
2022-09-09T23:14:06.515Z,16.11
2022-09-09T23:16:38.657Z,16.19
2022-09-09T23:19:10.814Z,16.24
2022-09-09T23:21:41.015Z,16.29
2022-09-09T23:24:12.859Z,16.29
2022-09-09T23:26:41.696Z,16.32
2022-09-09T23:29:15.140Z,16.38
2022-09-09T23:31:47.001Z,16.40
2022-09-09T23:34:16.341Z,16.42
2022-09-09T23:36:47.509Z,16.43
2022-09-09T23:39:16.254Z,16.39
2022-09-09T23:41:44.876Z,16.37
2022-09-09T23:44:14.226Z,16.38
2022-09-09T23:46:42.641Z,16.40
2022-09-09T23:49:11.729Z,16.42
2022-09-09T23:51:41.887Z,16.40
2022-09-09T23:54:12.042Z,16.39
2022-09-09T23:56:42.407Z,16.36
2022-09-09T23:59:11.850Z,16.41
